Terminal Aerodrome Forecast
Issued by NWS Wichita, KS

Home | Current Version | Previous Version | Text Only | Print | Product List | Glossary On
Versions: 1 2 3 4 5 6 7 8 9 10 11 12 13 14 15 16 17 18 19 20 21 22 23
000
FTUS43 KICT 262100 AAB
TAFICT
TAF AMD
KICT 262145Z 2622/2718 14009KT P6SM VCTS SCT060 BKN090CB
      TEMPO 2622/2624 VRB15G30KT -TSRA BKN060CB
     FM270100 16008KT P6SM SCT100 BKN250=

USA.gov is the U.S. government's official web portal to all federal, state and local government web resources and services.